LGL108 ELLX-LIME
Flight info
| Callsign | LGL108 |
|---|---|
| Flight time | 0h 48m |
| Altitude | 37000 |
| Route | GTQ DCT DEVDI DCT RIPUS DCT GERSA DCT SOSON DCT ODINA |
| Aircraft | B738/M-SDE2E3FGHIRWXY/LB1 |
Departure
| Time | 2026-05-05 14:25 |
|---|---|
| Airport | Luxembourg-Findel International Airport (ELLX) |
Arrival
| Time | 2026-05-05 15:13 |
|---|---|
| Airport | Il Caravaggio International Airport (LIME) |
| Time | Latitude | Longitude | Altitude | Speed | Heading |
|---|---|---|---|---|---|
| 2026-05-05 14:04 | 49.63367 | 6.21739 | 1241 ft | 0 kts | 330° |
| 2026-05-05 14:15 | 49.63359 | 6.21745 | 1241 ft | 2 kts | 330° |
| 2026-05-05 14:15 | 49.63347 | 6.21756 | 1241 ft | 2 kts | 341° |
| 2026-05-05 14:16 | 49.63332 | 6.21759 | 1241 ft | 2 kts | 4° |
| 2026-05-05 14:16 | 49.63317 | 6.21754 | 1241 ft | 2 kts | 26° |
| 2026-05-05 14:16 | 49.63305 | 6.21741 | 1241 ft | 2 kts | 47° |
| 2026-05-05 14:16 | 49.63300 | 6.21730 | 1241 ft | 1 kts | 59° |
| 2026-05-05 14:17 | 49.63297 | 6.21722 | 1241 ft | 0 kts | 60° |
| 2026-05-05 14:17 | 49.63297 | 6.21723 | 1241 ft | 0 kts | 60° |
| 2026-05-05 14:21 | 49.63299 | 6.21728 | 1241 ft | 2 kts | 60° |
| 2026-05-05 14:21 | 49.63306 | 6.21766 | 1241 ft | 4 kts | 89° |
| 2026-05-05 14:21 | 49.63285 | 6.21802 | 1241 ft | 6 kts | 150° |
| 2026-05-05 14:21 | 49.63231 | 6.21849 | 1241 ft | 11 kts | 151° |
| 2026-05-05 14:22 | 49.63175 | 6.21941 | 1241 ft | 13 kts | 93° |
| 2026-05-05 14:22 | 49.63214 | 6.22080 | 1241 ft | 15 kts | 66° |
| 2026-05-05 14:22 | 49.63267 | 6.22252 | 1241 ft | 19 kts | 64° |
| 2026-05-05 14:22 | 49.63331 | 6.22460 | 1241 ft | 23 kts | 64° |
| 2026-05-05 14:23 | 49.63412 | 6.22684 | 1241 ft | 24 kts | 60° |
| 2026-05-05 14:23 | 49.63502 | 6.22929 | 1241 ft | 27 kts | 58° |
| 2026-05-05 14:23 | 49.63601 | 6.23200 | 1241 ft | 29 kts | 57° |
| 2026-05-05 14:23 | 49.63649 | 6.23432 | 1241 ft | 17 kts | 136° |
| 2026-05-05 14:24 | 49.63545 | 6.23504 | 1241 ft | 15 kts | 188° |
| 2026-05-05 14:24 | 49.63464 | 6.23353 | 1241 ft | 43 kts | 240° |
| 2026-05-05 14:24 | 49.63167 | 6.22557 | 1241 ft | 124 kts | 240° |
| 2026-05-05 14:24 | 49.62627 | 6.21081 | 1412 ft | 174 kts | 240° |
| 2026-05-05 14:25 | 49.61998 | 6.19419 | 2053 ft | 190 kts | 238° |
| 2026-05-05 14:25 | 49.61354 | 6.17788 | 3039 ft | 175 kts | 238° |
| 2026-05-05 14:25 | 49.60727 | 6.16056 | 3463 ft | 195 kts | 239° |
| 2026-05-05 14:25 | 49.60220 | 6.14694 | 3841 ft | 205 kts | 238° |
| 2026-05-05 14:26 | 49.59476 | 6.12749 | 4266 ft | 223 kts | 238° |
| 2026-05-05 14:26 | 49.58518 | 6.10862 | 4838 ft | 232 kts | 217° |
| 2026-05-05 14:26 | 49.56994 | 6.10093 | 5539 ft | 237 kts | 180° |
| 2026-05-05 14:26 | 49.55445 | 6.10936 | 6120 ft | 253 kts | 145° |
| 2026-05-05 14:27 | 49.54454 | 6.13079 | 6855 ft | 259 kts | 115° |
| 2026-05-05 14:27 | 49.53796 | 6.15630 | 7525 ft | 262 kts | 117° |
| 2026-05-05 14:27 | 49.52934 | 6.18083 | 8048 ft | 269 kts | 124° |
| 2026-05-05 14:27 | 49.51935 | 6.20505 | 8681 ft | 272 kts | 126° |
| 2026-05-05 14:28 | 49.50909 | 6.22941 | 9294 ft | 276 kts | 127° |
| 2026-05-05 14:28 | 49.49749 | 6.25299 | 9825 ft | 280 kts | 139° |
| 2026-05-05 14:28 | 49.48184 | 6.26999 | 10485 ft | 279 kts | 159° |
| 2026-05-05 14:28 | 49.46373 | 6.28184 | 11043 ft | 291 kts | 164° |
| 2026-05-05 14:29 | 49.44442 | 6.29390 | 11274 ft | 317 kts | 160° |
| 2026-05-05 14:29 | 49.42377 | 6.30856 | 11641 ft | 337 kts | 159° |
| 2026-05-05 14:29 | 49.40160 | 6.32404 | 11805 ft | 361 kts | 159° |
| 2026-05-05 14:29 | 49.37816 | 6.34024 | 12012 ft | 382 kts | 159° |
| 2026-05-05 14:30 | 49.35332 | 6.35737 | 12505 ft | 393 kts | 159° |
| 2026-05-05 14:30 | 49.32856 | 6.37447 | 13069 ft | 401 kts | 159° |
| 2026-05-05 14:30 | 49.30270 | 6.39225 | 13737 ft | 405 kts | 160° |
| 2026-05-05 14:30 | 49.27723 | 6.40978 | 14371 ft | 409 kts | 160° |
| 2026-05-05 14:31 | 49.25102 | 6.42778 | 14994 ft | 413 kts | 159° |
| 2026-05-05 14:31 | 49.22545 | 6.44822 | 15621 ft | 421 kts | 153° |
| 2026-05-05 14:31 | 49.20099 | 6.47321 | 16164 ft | 428 kts | 148° |
| 2026-05-05 14:31 | 49.17697 | 6.50010 | 16763 ft | 432 kts | 148° |
| 2026-05-05 14:32 | 49.15258 | 6.52745 | 17239 ft | 438 kts | 148° |
| 2026-05-05 14:32 | 49.12772 | 6.55543 | 17828 ft | 441 kts | 148° |
| 2026-05-05 14:32 | 49.10314 | 6.58317 | 18271 ft | 446 kts | 148° |
| 2026-05-05 14:32 | 49.07805 | 6.61156 | 18787 ft | 450 kts | 148° |
| 2026-05-05 14:33 | 49.05283 | 6.64010 | 19226 ft | 455 kts | 148° |
| 2026-05-05 14:33 | 49.02754 | 6.66868 | 19696 ft | 458 kts | 149° |
| 2026-05-05 14:33 | 49.00150 | 6.69727 | 20107 ft | 462 kts | 150° |
| 2026-05-05 14:33 | 48.97438 | 6.72217 | 20504 ft | 461 kts | 158° |
| 2026-05-05 14:34 | 48.94556 | 6.74280 | 20953 ft | 461 kts | 161° |
| 2026-05-05 14:34 | 48.91610 | 6.76279 | 21382 ft | 464 kts | 161° |
| 2026-05-05 14:34 | 48.88665 | 6.78297 | 21788 ft | 467 kts | 161° |
| 2026-05-05 14:34 | 48.85673 | 6.80347 | 22185 ft | 470 kts | 161° |
| 2026-05-05 14:35 | 48.82715 | 6.82368 | 22569 ft | 473 kts | 161° |
| 2026-05-05 14:35 | 48.79681 | 6.84434 | 22941 ft | 476 kts | 161° |
| 2026-05-05 14:35 | 48.76677 | 6.86475 | 23301 ft | 479 kts | 161° |
| 2026-05-05 14:35 | 48.73611 | 6.88555 | 23647 ft | 482 kts | 161° |
| 2026-05-05 14:36 | 48.70546 | 6.90630 | 23992 ft | 485 kts | 161° |
| 2026-05-05 14:36 | 48.67484 | 6.92701 | 24312 ft | 488 kts | 161° |
| 2026-05-05 14:36 | 48.64395 | 6.94786 | 24639 ft | 490 kts | 161° |
| 2026-05-05 14:36 | 48.61351 | 6.96838 | 24941 ft | 493 kts | 161° |
| 2026-05-05 14:37 | 48.58254 | 6.98923 | 25248 ft | 495 kts | 161° |
| 2026-05-05 14:37 | 48.55104 | 7.01039 | 25535 ft | 498 kts | 161° |
| 2026-05-05 14:37 | 48.52018 | 7.03109 | 25821 ft | 500 kts | 161° |
| 2026-05-05 14:37 | 48.48872 | 7.05216 | 26089 ft | 503 kts | 161° |
| 2026-05-05 14:38 | 48.45708 | 7.07332 | 26364 ft | 505 kts | 161° |
| 2026-05-05 14:38 | 48.42560 | 7.09435 | 26654 ft | 506 kts | 162° |
| 2026-05-05 14:38 | 48.39395 | 7.11545 | 26952 ft | 508 kts | 162° |
| 2026-05-05 14:38 | 48.36181 | 7.13685 | 27255 ft | 509 kts | 162° |
| 2026-05-05 14:39 | 48.32962 | 7.15824 | 27559 ft | 510 kts | 162° |
| 2026-05-05 14:39 | 48.29747 | 7.17958 | 27870 ft | 510 kts | 162° |
| 2026-05-05 14:39 | 48.26569 | 7.20064 | 28172 ft | 511 kts | 162° |
| 2026-05-05 14:39 | 48.23504 | 7.22092 | 28482 ft | 511 kts | 162° |
| 2026-05-05 14:40 | 48.20303 | 7.24207 | 28800 ft | 511 kts | 162° |
| 2026-05-05 14:40 | 48.17276 | 7.26204 | 29101 ft | 511 kts | 162° |
| 2026-05-05 14:40 | 48.13996 | 7.28366 | 29428 ft | 511 kts | 162° |
| 2026-05-05 14:40 | 48.10747 | 7.30505 | 29747 ft | 511 kts | 162° |
| 2026-05-05 14:41 | 48.07526 | 7.32623 | 30054 ft | 512 kts | 162° |
| 2026-05-05 14:41 | 48.04279 | 7.34755 | 30365 ft | 511 kts | 162° |
| 2026-05-05 14:41 | 48.00998 | 7.36905 | 30660 ft | 512 kts | 162° |
| 2026-05-05 14:41 | 47.97778 | 7.39014 | 30966 ft | 512 kts | 162° |
| 2026-05-05 14:42 | 47.94542 | 7.41129 | 31258 ft | 512 kts | 162° |
| 2026-05-05 14:42 | 47.91344 | 7.43218 | 31545 ft | 512 kts | 162° |
| 2026-05-05 14:42 | 47.88126 | 7.45317 | 31835 ft | 512 kts | 162° |
| 2026-05-05 14:42 | 47.84978 | 7.47366 | 32106 ft | 512 kts | 162° |
| 2026-05-05 14:43 | 47.81777 | 7.49448 | 32384 ft | 511 kts | 162° |
| 2026-05-05 14:43 | 47.78582 | 7.51599 | 32638 ft | 515 kts | 157° |
| 2026-05-05 14:43 | 47.75580 | 7.54607 | 32871 ft | 525 kts | 142° |
| 2026-05-05 14:43 | 47.72916 | 7.58265 | 33213 ft | 525 kts | 140° |
| 2026-05-05 14:44 | 47.70367 | 7.62088 | 33391 ft | 530 kts | 134° |
| 2026-05-05 14:44 | 47.68034 | 7.66367 | 33665 ft | 531 kts | 129° |
| 2026-05-05 14:44 | 47.65870 | 7.70724 | 33905 ft | 531 kts | 128° |
| 2026-05-05 14:44 | 47.63698 | 7.75141 | 34133 ft | 531 kts | 128° |
| 2026-05-05 14:45 | 47.61516 | 7.79538 | 34386 ft | 531 kts | 129° |
| 2026-05-05 14:45 | 47.59314 | 7.83954 | 34631 ft | 530 kts | 129° |
| 2026-05-05 14:45 | 47.57124 | 7.88335 | 34870 ft | 530 kts | 129° |
| 2026-05-05 14:45 | 47.54946 | 7.92686 | 35109 ft | 529 kts | 129° |
| 2026-05-05 14:46 | 47.52830 | 7.96907 | 35332 ft | 529 kts | 129° |
| 2026-05-05 14:46 | 47.50697 | 8.01154 | 35550 ft | 529 kts | 129° |
| 2026-05-05 14:46 | 47.48529 | 8.05464 | 35777 ft | 528 kts | 129° |
| 2026-05-05 14:46 | 47.46355 | 8.09780 | 35997 ft | 528 kts | 129° |
| 2026-05-05 14:47 | 47.44238 | 8.13974 | 36201 ft | 527 kts | 129° |
| 2026-05-05 14:47 | 47.42107 | 8.18188 | 36400 ft | 527 kts | 129° |
| 2026-05-05 14:47 | 47.39926 | 8.22497 | 36603 ft | 527 kts | 129° |
| 2026-05-05 14:47 | 47.37738 | 8.26813 | 36793 ft | 527 kts | 129° |
| 2026-05-05 14:48 | 47.33481 | 8.35190 | 36857 ft | 525 kts | 129° |
| 2026-05-05 14:48 | 47.28736 | 8.42938 | 36854 ft | 513 kts | 147° |
| 2026-05-05 14:49 | 47.22809 | 8.48182 | 36862 ft | 504 kts | 159° |
| 2026-05-05 14:49 | 47.16331 | 8.51214 | 36862 ft | 485 kts | 180° |
| 2026-05-05 14:50 | 47.09716 | 8.52187 | 36871 ft | 483 kts | 182° |
| 2026-05-05 14:50 | 47.03193 | 8.53137 | 36881 ft | 483 kts | 181° |
| 2026-05-05 14:51 | 46.96680 | 8.54082 | 36884 ft | 482 kts | 180° |
| 2026-05-05 14:51 | 46.90044 | 8.55054 | 36885 ft | 479 kts | 179° |
| 2026-05-05 14:52 | 46.77656 | 8.56878 | 36219 ft | 472 kts | 179° |
| 2026-05-05 14:53 | 46.74410 | 8.57348 | 35466 ft | 473 kts | 179° |
| 2026-05-05 14:53 | 46.71141 | 8.57817 | 34649 ft | 474 kts | 179° |
| 2026-05-05 14:53 | 46.67858 | 8.58287 | 33810 ft | 476 kts | 179° |
| 2026-05-05 14:53 | 46.64613 | 8.58751 | 32959 ft | 477 kts | 179° |
| 2026-05-05 14:54 | 46.61300 | 8.59225 | 32069 ft | 479 kts | 179° |
| 2026-05-05 14:54 | 46.58036 | 8.59692 | 31164 ft | 480 kts | 178° |
| 2026-05-05 14:54 | 46.54744 | 8.60166 | 30469 ft | 476 kts | 178° |
| 2026-05-05 14:54 | 46.51433 | 8.60641 | 29583 ft | 476 kts | 178° |
| 2026-05-05 14:55 | 46.48206 | 8.61103 | 28778 ft | 474 kts | 178° |
| 2026-05-05 14:55 | 46.44944 | 8.61569 | 27851 ft | 474 kts | 178° |
| 2026-05-05 14:55 | 46.41706 | 8.62031 | 26940 ft | 474 kts | 178° |
| 2026-05-05 14:55 | 46.38462 | 8.62494 | 25956 ft | 474 kts | 177° |
| 2026-05-05 14:56 | 46.35206 | 8.62957 | 24916 ft | 475 kts | 177° |
| 2026-05-05 14:56 | 46.31941 | 8.63422 | 23967 ft | 472 kts | 177° |
| 2026-05-05 14:56 | 46.28673 | 8.63887 | 23055 ft | 468 kts | 176° |
| 2026-05-05 14:56 | 46.25493 | 8.64339 | 22216 ft | 463 kts | 176° |
| 2026-05-05 14:57 | 46.22319 | 8.64790 | 21362 ft | 458 kts | 176° |
| 2026-05-05 14:57 | 46.19199 | 8.65355 | 20547 ft | 454 kts | 171° |
| 2026-05-05 14:57 | 46.16187 | 8.66506 | 19744 ft | 449 kts | 163° |
| 2026-05-05 14:57 | 46.13336 | 8.68153 | 18945 ft | 445 kts | 155° |
| 2026-05-05 14:58 | 46.10720 | 8.70526 | 18163 ft | 440 kts | 143° |
| 2026-05-05 14:58 | 46.08447 | 8.73370 | 17408 ft | 434 kts | 137° |
| 2026-05-05 14:58 | 46.06432 | 8.76559 | 16570 ft | 430 kts | 127° |
| 2026-05-05 14:58 | 46.04816 | 8.80096 | 15869 ft | 423 kts | 121° |
| 2026-05-05 14:59 | 46.03349 | 8.83706 | 15085 ft | 418 kts | 120° |
| 2026-05-05 14:59 | 46.01887 | 8.87303 | 14310 ft | 412 kts | 121° |
| 2026-05-05 14:59 | 46.00452 | 8.90799 | 13564 ft | 406 kts | 121° |
| 2026-05-05 14:59 | 45.99023 | 8.94271 | 13025 ft | 395 kts | 121° |
| 2026-05-05 15:00 | 45.97660 | 8.97577 | 12990 ft | 378 kts | 121° |
| 2026-05-05 15:00 | 45.96770 | 8.99733 | 12992 ft | 373 kts | 121° |
| 2026-05-05 15:00 | 45.95044 | 9.03908 | 12993 ft | 358 kts | 121° |
| 2026-05-05 15:00 | 45.93804 | 9.06901 | 12992 ft | 343 kts | 121° |
| 2026-05-05 15:01 | 45.92597 | 9.09810 | 12991 ft | 330 kts | 121° |
| 2026-05-05 15:01 | 45.91445 | 9.12584 | 12991 ft | 317 kts | 121° |
| 2026-05-05 15:01 | 45.90335 | 9.15254 | 12991 ft | 305 kts | 121° |
| 2026-05-05 15:01 | 45.89344 | 9.17634 | 12992 ft | 296 kts | 121° |
| 2026-05-05 15:02 | 45.88250 | 9.20261 | 12994 ft | 295 kts | 121° |
| 2026-05-05 15:02 | 45.87214 | 9.22745 | 12993 ft | 295 kts | 121° |
| 2026-05-05 15:02 | 45.86168 | 9.25249 | 12994 ft | 295 kts | 121° |
| 2026-05-05 15:02 | 45.85099 | 9.27809 | 12994 ft | 295 kts | 121° |
| 2026-05-05 15:03 | 45.84053 | 9.30311 | 12961 ft | 296 kts | 121° |
| 2026-05-05 15:03 | 45.82975 | 9.32886 | 12383 ft | 303 kts | 121° |
| 2026-05-05 15:03 | 45.81836 | 9.35412 | 11649 ft | 302 kts | 130° |
| 2026-05-05 15:03 | 45.80266 | 9.37351 | 10947 ft | 299 kts | 150° |
| 2026-05-05 15:04 | 45.78481 | 9.38725 | 10493 ft | 289 kts | 153° |
| 2026-05-05 15:04 | 45.76728 | 9.40066 | 9817 ft | 289 kts | 152° |
| 2026-05-05 15:04 | 45.74958 | 9.41446 | 9114 ft | 289 kts | 151° |
| 2026-05-05 15:04 | 45.73212 | 9.42838 | 8413 ft | 289 kts | 147° |
| 2026-05-05 15:05 | 45.71053 | 9.47219 | 7555 ft | 265 kts | 103° |
| 2026-05-05 15:05 | 45.70634 | 9.49727 | 6983 ft | 260 kts | 103° |
| 2026-05-05 15:05 | 45.70183 | 9.52252 | 6195 ft | 263 kts | 103° |
| 2026-05-05 15:06 | 45.69722 | 9.54780 | 5467 ft | 262 kts | 103° |
| 2026-05-05 15:06 | 45.69293 | 9.57247 | 4759 ft | 257 kts | 103° |
| 2026-05-05 15:06 | 45.68916 | 9.59650 | 4259 ft | 243 kts | 107° |
| 2026-05-05 15:06 | 45.68055 | 9.61604 | 3808 ft | 228 kts | 142° |
| 2026-05-05 15:07 | 45.66620 | 9.62284 | 3383 ft | 218 kts | 183° |
| 2026-05-05 15:07 | 45.65214 | 9.61659 | 3033 ft | 207 kts | 203° |
| 2026-05-05 15:07 | 45.63979 | 9.60849 | 2973 ft | 185 kts | 202° |
| 2026-05-05 15:07 | 45.62803 | 9.60091 | 3037 ft | 186 kts | 202° |
| 2026-05-05 15:08 | 45.61619 | 9.59329 | 2995 ft | 187 kts | 202° |
| 2026-05-05 15:08 | 45.60508 | 9.58395 | 2969 ft | 183 kts | 225° |
| 2026-05-05 15:08 | 45.60086 | 9.56788 | 2969 ft | 178 kts | 272° |
| 2026-05-05 15:08 | 45.60508 | 9.55127 | 3007 ft | 182 kts | 307° |
| 2026-05-05 15:09 | 45.61482 | 9.54013 | 2992 ft | 177 kts | 341° |
| 2026-05-05 15:09 | 45.62682 | 9.53839 | 3004 ft | 175 kts | 2° |
| 2026-05-05 15:09 | 45.63876 | 9.53680 | 3028 ft | 166 kts | 352° |
| 2026-05-05 15:09 | 45.65008 | 9.53437 | 3121 ft | 169 kts | 352° |
| 2026-05-05 15:10 | 45.66157 | 9.53323 | 2883 ft | 163 kts | 12° |
| 2026-05-05 15:10 | 45.67020 | 9.54246 | 2667 ft | 161 kts | 64° |
| 2026-05-05 15:10 | 45.67298 | 9.55811 | 2498 ft | 159 kts | 79° |
| 2026-05-05 15:10 | 45.67532 | 9.57249 | 2157 ft | 144 kts | 77° |
| 2026-05-05 15:11 | 45.67754 | 9.58607 | 1863 ft | 137 kts | 77° |
| 2026-05-05 15:11 | 45.67903 | 9.59971 | 1639 ft | 139 kts | 86° |
| 2026-05-05 15:11 | 45.67980 | 9.61337 | 1416 ft | 138 kts | 86° |
| 2026-05-05 15:11 | 45.67942 | 9.62693 | 1221 ft | 137 kts | 95° |
| 2026-05-05 15:12 | 45.67718 | 9.64021 | 1085 ft | 136 kts | 108° |
| 2026-05-05 15:12 | 45.67557 | 9.65330 | 1197 ft | 135 kts | 88° |
| 2026-05-05 15:12 | 45.67496 | 9.66703 | 1289 ft | 141 kts | 99° |
| 2026-05-05 15:12 | 45.67261 | 9.68057 | 1105 ft | 139 kts | 104° |
| 2026-05-05 15:13 | 45.67033 | 9.69357 | 819 ft | 135 kts | 104° |
| 2026-05-05 15:13 | 45.66806 | 9.70576 | 782 ft | 111 kts | 105° |
| 2026-05-05 15:13 | 45.66664 | 9.71353 | 770 ft | 85 kts | 105° |
| 2026-05-05 15:13 | 45.66568 | 9.71857 | 761 ft | 31 kts | 108° |
| 2026-05-05 15:14 | 45.66486 | 9.71863 | 760 ft | 13 kts | 251° |
| 2026-05-05 15:14 | 45.66466 | 9.71754 | 762 ft | 10 kts | 254° |
| 2026-05-05 15:14 | 45.66447 | 9.71653 | 763 ft | 11 kts | 257° |
| 2026-05-05 15:14 | 45.66449 | 9.71518 | 764 ft | 15 kts | 288° |
| 2026-05-05 15:15 | 45.66478 | 9.71364 | 766 ft | 17 kts | 285° |
| 2026-05-05 15:15 | 45.66513 | 9.71192 | 770 ft | 17 kts | 291° |
| 2026-05-05 15:15 | 45.66555 | 9.71018 | 773 ft | 18 kts | 286° |
| 2026-05-05 15:15 | 45.66590 | 9.70827 | 775 ft | 21 kts | 285° |
| 2026-05-05 15:16 | 45.66631 | 9.70616 | 778 ft | 22 kts | 282° |
| 2026-05-05 15:16 | 45.66669 | 9.70404 | 778 ft | 23 kts | 286° |
| 2026-05-05 15:16 | 45.66715 | 9.70159 | 778 ft | 26 kts | 284° |
| 2026-05-05 15:16 | 45.66764 | 9.69900 | 779 ft | 20 kts | 285° |
| 2026-05-05 15:17 | 45.66752 | 9.69829 | 779 ft | 4 kts | 202° |
| 2026-05-05 15:17 | 45.66744 | 9.69827 | 779 ft | 1 kts | 193° |
| 2026-05-05 15:17 | 45.66728 | 9.69821 | 778 ft | 2 kts | 194° |
| 2026-05-05 15:17 | 45.66707 | 9.69813 | 778 ft | 3 kts | 195° |
| 2026-05-05 15:18 | 45.66685 | 9.69805 | 777 ft | 2 kts | 195° |
| 2026-05-05 15:18 | 45.66684 | 9.69805 | 777 ft | 0 kts | 195° |